Preview of NWS' New Version of Forecast
This preview is not operational and should not be used for support decisions.

Terminal Aerodrome Forecast (TAF)

Issued by National Weather Service (NWS)

                            
336 
FTUS42 KKEY 211741
TAFMTH
TAF
KMTH 211741Z 2118/2218 11012G21KT P6SM FEW025
     FM220200 10010G17KT P6SM SCT020 SCT035=